< < Back
Terminal Aerodrome Forecast


Current Version              Previous Versions:   1  2  3  4  5  6  7  8  9  

Terminal Aerodrome Forecast

763
FTUS42 KGSP 231200 AAA
TAFGSP
TAF AMD
KGSP 231237Z 2313/2412 00000KT P6SM FEW035
     FM231500 24005KT P6SM BKN040
     FM232100 25005KT P6SM BKN070=



Latest METAR

267
SAUS70 KWBC 231400 RRA
MTRGSP
METAR KGSP 231353Z 00000KT 10SM FEW110 27/22 A3011 RMK AO2 SLP184
T02720222


USA.gov is the U.S. government's official web portal to all federal, state and local government web resources and services.